Terminal Aerodrome Forecast
Issued by NWS Cleveland, OH

Home | Current Version | Previous Version | Text Only | Print | Product List | Glossary Off
Versions: 1 2 3 4 5 6 7 8 9 10 11 12 13 14 15 16 17 18 19 20 21

247
FTUS41 KCLE 191133
TAFCLE
TAF
KCLE 191133Z 1912/2018 36010KT 1SM -SN BKN009 OVC015
     FM191300 35014KT 5SM -SN OVC010
     FM191500 34018G28KT P6SM OVC020
     FM191900 32020G28KT P6SM BKN035
     FM192200 34012KT P6SM BKN040
     FM200500 32008KT P6SM SCT030=

USA.gov is the U.S. government's official web portal to all federal, state and local government web resources and services.